createdAt,value
2022-10-01T00:00:05.073Z,5.43
2022-10-01T00:02:31.478Z,5.60
2022-10-01T00:04:58.171Z,5.80
2022-10-01T00:07:24.549Z,5.95
2022-10-01T00:09:51.030Z,6.05
2022-10-01T00:12:17.531Z,5.45
2022-10-01T00:14:45.051Z,5.72
2022-10-01T00:17:11.421Z,5.97
2022-10-01T00:19:37.793Z,5.05
2022-10-01T00:22:04.172Z,6.10
2022-10-01T00:24:30.585Z,5.50
2022-10-01T00:26:57.683Z,6.35
2022-10-01T00:29:24.180Z,5.57
2022-10-01T00:31:50.715Z,5.53
2022-10-01T00:34:17.179Z,5.40
2022-10-01T00:36:43.546Z,5.30
2022-10-01T00:39:11.645Z,4.55
2022-10-01T00:41:38.512Z,5.43
2022-10-01T00:44:28.804Z,5.43
2022-10-01T00:46:58.402Z,4.70
2022-10-01T00:49:29.167Z,5.38
2022-10-01T00:52:00.328Z,4.85
2022-10-01T00:54:36.929Z,4.63
2022-10-01T00:57:05.994Z,5.05
2022-10-01T00:59:33.651Z,4.97
2022-10-01T01:02:00.097Z,4.38
2022-10-01T01:04:27.860Z,4.68
2022-10-01T01:06:58.323Z,4.30
2022-10-01T01:09:33.304Z,4.63
2022-10-01T01:12:25.440Z,4.72
2022-10-01T01:15:02.896Z,4.43
2022-10-01T01:17:40.420Z,4.35
2022-10-01T01:20:16.305Z,4.60
2022-10-01T01:22:50.655Z,4.88
2022-10-01T01:25:22.309Z,4.72
2022-10-01T01:27:57.489Z,4.68
2022-10-01T01:30:23.954Z,4.15
2022-10-01T01:33:05.973Z,4.00
2022-10-01T01:35:37.978Z,3.78
2022-10-01T01:38:14.977Z,4.03
2022-10-01T01:40:44.579Z,4.18
2022-10-01T01:43:20.516Z,3.88
2022-10-01T01:45:51.078Z,4.15
2022-10-01T01:48:17.502Z,4.05
2022-10-01T01:50:50.386Z,3.95
2022-10-01T01:53:16.880Z,4.05
2022-10-01T01:55:47.644Z,3.67
2022-10-01T01:58:14.337Z,3.83
2022-10-01T02:00:41.239Z,3.70
2022-10-01T02:03:09.127Z,3.38
2022-10-01T02:05:48.942Z,3.95
2022-10-01T02:08:27.638Z,4.03
2022-10-01T02:11:11.272Z,3.75
2022-10-01T02:14:16.150Z,3.80
2022-10-01T02:17:08.925Z,3.60
2022-10-01T02:19:43.180Z,3.92
2022-10-01T02:24:45.122Z,2.95
2022-10-01T02:27:18.970Z,3.22
2022-10-01T02:29:46.256Z,3.42
2022-10-01T02:32:15.170Z,3.65
2022-10-01T02:34:43.190Z,3.88
2022-10-01T02:37:11.610Z,3.15
2022-10-01T02:39:41.398Z,3.28
2022-10-01T02:42:11.481Z,3.05
2022-10-01T02:44:42.503Z,3.17
2022-10-01T02:47:21.367Z,3.15
2022-10-01T02:49:49.219Z,2.85
2022-10-01T02:52:18.281Z,2.80
2022-10-01T02:54:53.789Z,2.63
2022-10-01T02:57:23.161Z,3.03
2022-10-01T02:59:51.091Z,2.92
2022-10-01T03:02:18.139Z,2.80
2022-10-01T03:04:44.602Z,2.40
2022-10-01T03:07:10.993Z,2.58
2022-10-01T03:09:37.966Z,3.38
2022-10-01T03:12:06.464Z,2.40
2022-10-01T03:14:33.179Z,2.00
2022-10-01T03:16:59.674Z,2.00
2022-10-01T03:19:26.049Z,1.92
2022-10-01T03:21:52.399Z,1.83
2022-10-01T03:24:18.733Z,1.83
2022-10-01T03:26:45.261Z,2.00
2022-10-01T03:29:13.211Z,1.58
2022-10-01T03:31:39.728Z,1.90
2022-10-01T03:34:06.219Z,2.22
2022-10-01T03:36:32.615Z,1.67
2022-10-01T03:38:59.177Z,1.83
2022-10-01T03:41:25.649Z,2.03
2022-10-01T03:43:52.103Z,1.98
2022-10-01T03:46:18.464Z,2.17
2022-10-01T03:48:44.894Z,2.10
2022-10-01T03:51:11.332Z,2.20
2022-10-01T03:53:38.552Z,2.00
2022-10-01T03:56:05.112Z,1.88
2022-10-01T03:58:31.827Z,2.38
2022-10-01T04:00:58.193Z,1.67
2022-10-01T04:03:24.728Z,2.47
2022-10-01T04:05:51.114Z,1.95
2022-10-01T04:08:20.864Z,2.03
2022-10-01T04:10:50.676Z,1.25
2022-10-01T04:13:17.780Z,1.85
2022-10-01T04:15:44.545Z,1.92
2022-10-01T04:18:11.120Z,1.80
2022-10-01T04:20:38.384Z,1.58
2022-10-01T04:23:05.570Z,2.00
2022-10-01T04:25:32.797Z,1.70
2022-10-01T04:28:04.571Z,1.80
2022-10-01T04:30:36.375Z,1.80
2022-10-01T04:33:03.443Z,1.67
2022-10-01T04:35:30.075Z,1.67
2022-10-01T04:38:01.910Z,1.63
2022-10-01T04:40:28.282Z,1.90
2022-10-01T04:42:54.629Z,1.52
2022-10-01T04:45:21.153Z,1.50
2022-10-01T04:47:53.812Z,1.88
2022-10-01T04:50:21.818Z,1.80
2022-10-01T04:52:48.464Z,1.60
2022-10-01T04:55:16.239Z,1.98
2022-10-01T04:57:42.984Z,2.25
2022-10-01T05:00:13.048Z,1.70
2022-10-01T05:02:39.636Z,1.70
2022-10-01T05:05:07.383Z,2.13
2022-10-01T05:07:34.933Z,1.88
2022-10-01T05:10:01.442Z,1.50
2022-10-01T05:12:28.634Z,1.67
2022-10-01T05:14:56.264Z,2.10
2022-10-01T05:17:23.198Z,2.20
2022-10-01T05:19:49.915Z,2.05
2022-10-01T05:22:16.942Z,2.00
2022-10-01T05:24:43.691Z,1.90
2022-10-01T05:27:13.209Z,2.15
2022-10-01T05:29:41.473Z,1.67
2022-10-01T05:32:12.163Z,1.90
2022-10-01T05:34:38.756Z,1.80
2022-10-01T05:37:06.335Z,1.58
2022-10-01T05:39:33.115Z,1.77
2022-10-01T05:42:03.930Z,1.73
2022-10-01T05:44:37.945Z,1.70
2022-10-01T05:47:07.802Z,1.77
2022-10-01T05:49:34.230Z,1.70
2022-10-01T05:52:01.179Z,2.20
2022-10-01T05:54:29.423Z,1.73
2022-10-01T05:56:56.867Z,1.70
2022-10-01T05:59:28.441Z,1.90
2022-10-01T06:04:24.166Z,2.13
2022-10-01T06:06:50.573Z,1.80
2022-10-01T06:09:17.055Z,2.03
2022-10-01T06:11:43.440Z,1.63
2022-10-01T06:14:09.926Z,1.90
2022-10-01T06:16:36.370Z,1.75
2022-10-01T06:19:02.920Z,2.03
2022-10-01T06:21:30.327Z,1.70
2022-10-01T06:23:56.921Z,1.80
2022-10-01T06:26:24.336Z,1.80
2022-10-01T06:28:51.475Z,1.95
2022-10-01T06:31:19.171Z,2.28
2022-10-01T06:33:45.601Z,2.30
2022-10-01T06:36:12.042Z,2.17
2022-10-01T06:38:38.488Z,2.20
2022-10-01T06:41:05.292Z,1.70
2022-10-01T06:43:32.880Z,2.00
2022-10-01T06:46:03.611Z,2.38
2022-10-01T06:48:31.278Z,2.30
2022-10-01T06:50:58.808Z,2.17
2022-10-01T06:53:27.482Z,1.90
2022-10-01T06:55:54.365Z,2.35
2022-10-01T06:58:22.689Z,2.08
2022-10-01T07:00:50.234Z,2.10
2022-10-01T07:03:21.929Z,2.53
2022-10-01T07:05:49.554Z,2.25
2022-10-01T07:08:16.586Z,1.98
2022-10-01T07:10:44.127Z,2.15
2022-10-01T07:13:13.495Z,2.03
2022-10-01T07:15:40.557Z,2.20
2022-10-01T07:18:09.575Z,2.17
2022-10-01T07:20:39.560Z,2.47
2022-10-01T07:23:08.452Z,2.28
2022-10-01T07:25:34.915Z,2.55
2022-10-01T07:28:04.615Z,2.70
2022-10-01T07:30:31.876Z,2.28
2022-10-01T07:32:58.587Z,2.55
2022-10-01T07:35:25.247Z,1.83
2022-10-01T07:37:53.567Z,2.00
2022-10-01T07:40:19.922Z,2.38
2022-10-01T07:42:56.223Z,1.95
2022-10-01T07:45:23.994Z,2.28
2022-10-01T07:47:59.220Z,1.90
2022-10-01T07:50:26.748Z,2.30
2022-10-01T07:52:54.369Z,1.65
2022-10-01T07:55:22.790Z,2.13
2022-10-01T07:57:53.179Z,1.80
2022-10-01T08:00:20.608Z,1.75
2022-10-01T08:02:51.393Z,2.08
2022-10-01T08:05:19.209Z,1.98
2022-10-01T08:07:46.886Z,1.75
2022-10-01T08:10:14.008Z,2.13
2022-10-01T08:12:42.711Z,1.90
2022-10-01T08:15:14.935Z,2.00
2022-10-01T08:17:41.808Z,1.70
2022-10-01T08:20:10.709Z,2.03
2022-10-01T08:22:41.647Z,2.30
2022-10-01T08:25:09.195Z,2.17
2022-10-01T08:27:35.748Z,2.35
2022-10-01T08:30:02.186Z,2.20
2022-10-01T08:32:28.883Z,2.50
2022-10-01T08:34:57.510Z,2.80
2022-10-01T08:37:27.069Z,2.67
2022-10-01T08:39:54.906Z,2.42
2022-10-01T08:42:36.326Z,2.83
2022-10-01T08:45:10.242Z,2.17
2022-10-01T08:47:45.212Z,2.53
2022-10-01T08:50:28.620Z,2.47
2022-10-01T08:53:00.211Z,2.60
2022-10-01T08:55:31.800Z,2.50
2022-10-01T08:58:01.816Z,2.67
2022-10-01T09:00:30.400Z,2.13
2022-10-01T09:03:00.593Z,2.55
2022-10-01T09:05:45.834Z,2.75
2022-10-01T09:08:43.735Z,2.08
2022-10-01T09:11:47.091Z,2.25
2022-10-01T09:14:37.779Z,2.60
2022-10-01T09:17:41.077Z,2.97
2022-10-01T09:20:27.502Z,2.05
2022-10-01T09:23:27.065Z,1.98
2022-10-01T09:25:53.807Z,2.80
2022-10-01T09:28:23.482Z,2.45
2022-10-01T09:30:56.683Z,2.60
2022-10-01T09:33:57.963Z,2.28
2022-10-01T09:36:30.124Z,2.58
2022-10-01T09:39:13.224Z,2.70
2022-10-01T09:41:39.677Z,2.55
2022-10-01T09:44:18.557Z,2.72
2022-10-01T09:46:46.665Z,2.65
2022-10-01T09:49:30.919Z,2.20
2022-10-01T09:52:13.223Z,2.45
2022-10-01T09:54:45.731Z,2.78
2022-10-01T09:57:24.587Z,2.55
2022-10-01T10:00:03.586Z,2.33
2022-10-01T10:02:43.359Z,2.63
2022-10-01T10:05:25.092Z,2.53
2022-10-01T10:07:55.002Z,2.20
2022-10-01T10:10:30.559Z,1.92
2022-10-01T10:13:18.740Z,2.30
2022-10-01T10:15:57.372Z,2.10
2022-10-01T10:18:36.810Z,2.03
2022-10-01T10:21:10.819Z,2.63
2022-10-01T10:23:47.360Z,2.08
2022-10-01T10:26:20.256Z,2.53
2022-10-01T10:28:48.088Z,2.38
2022-10-01T10:31:24.309Z,2.35
2022-10-01T10:34:04.996Z,2.00
2022-10-01T10:36:35.859Z,2.30
2022-10-01T10:39:06.098Z,1.80
2022-10-01T10:41:34.316Z,2.03
2022-10-01T10:44:05.077Z,2.58
2022-10-01T10:46:34.669Z,1.90
2022-10-01T10:49:08.224Z,1.90
2022-10-01T10:52:17.483Z,1.75
2022-10-01T10:54:47.800Z,1.70
2022-10-01T10:57:21.268Z,2.00
2022-10-01T11:00:16.060Z,1.80
2022-10-01T11:02:55.582Z,1.35
2022-10-01T11:05:26.091Z,1.67
2022-10-01T11:07:59.320Z,1.55
2022-10-01T11:10:39.367Z,1.48
2022-10-01T11:13:58.341Z,1.50
2022-10-01T11:16:30.904Z,1.45
2022-10-01T11:19:32.860Z,1.70
2022-10-01T11:22:23.972Z,1.85
2022-10-01T11:25:13.137Z,1.33
2022-10-01T11:27:52.409Z,1.40
2022-10-01T11:30:26.479Z,1.60
2022-10-01T11:33:17.067Z,1.33
2022-10-01T11:36:00.428Z,1.08
2022-10-01T11:38:46.041Z,1.48
2022-10-01T11:41:27.552Z,1.20
2022-10-01T11:44:03.900Z,4.32
2022-10-01T11:46:38.502Z,1.08
2022-10-01T11:49:29.044Z,1.73
2022-10-01T11:52:33.775Z,1.10
2022-10-01T11:55:34.473Z,0.82
2022-10-01T11:58:29.531Z,0.90
2022-10-01T12:01:03.059Z,0.93
2022-10-01T12:03:37.562Z,0.80
2022-10-01T12:06:09.286Z,1.30
2022-10-01T12:08:37.528Z,1.20
2022-10-01T12:11:18.827Z,0.80
2022-10-01T12:13:56.536Z,0.98
2022-10-01T12:16:40.020Z,0.60
2022-10-01T12:19:21.485Z,0.57
2022-10-01T12:22:20.264Z,0.68
2022-10-01T12:24:48.955Z,0.90
2022-10-01T12:27:31.134Z,0.93
2022-10-01T12:30:04.818Z,1.00
2022-10-01T12:32:55.472Z,1.10
2022-10-01T12:35:27.827Z,1.42
2022-10-01T12:38:31.307Z,1.67
2022-10-01T12:41:27.088Z,0.98
2022-10-01T12:44:27.179Z,0.80
2022-10-01T12:47:13.852Z,1.20
2022-10-01T12:50:09.763Z,0.80
2022-10-01T12:53:00.312Z,1.02
2022-10-01T12:55:54.841Z,0.50
2022-10-01T12:58:21.131Z,0.82
2022-10-01T13:01:05.130Z,1.20
2022-10-01T13:04:12.867Z,1.50
2022-10-01T13:07:04.705Z,1.08
2022-10-01T13:09:46.666Z,0.70
2022-10-01T13:12:51.195Z,1.15
2022-10-01T13:15:42.390Z,1.33
2022-10-01T13:18:20.953Z,0.95
2022-10-01T13:20:52.961Z,0.73
2022-10-01T13:23:41.470Z,0.65
2022-10-01T13:26:17.355Z,0.90
2022-10-01T13:29:00.519Z,1.25
2022-10-01T13:31:38.469Z,1.45
2022-10-01T13:34:42.755Z,1.02
2022-10-01T13:37:30.810Z,0.80
2022-10-01T13:39:58.589Z,0.93
2022-10-01T13:42:27.481Z,0.70
2022-10-01T13:44:56.896Z,0.80
2022-10-01T13:47:25.132Z,0.70
2022-10-01T13:49:58.327Z,0.73
2022-10-01T13:52:25.223Z,0.77
2022-10-01T13:54:55.372Z,0.77
2022-10-01T13:57:30.732Z,0.82
2022-10-01T14:11:43.336Z,0.70
2022-10-01T14:14:34.561Z,1.40
2022-10-01T14:17:01.644Z,1.83
2022-10-01T14:19:28.477Z,1.30
2022-10-01T14:22:13.531Z,1.50
2022-10-01T14:25:00.631Z,0.80
2022-10-01T14:27:43.350Z,1.20
2022-10-01T14:30:18.784Z,0.80
2022-10-01T14:33:34.192Z,0.90
2022-10-01T14:38:36.452Z,1.00
2022-10-01T14:41:02.994Z,0.70
2022-10-01T14:43:31.791Z,1.00
2022-10-01T14:46:04.175Z,1.08
2022-10-01T14:48:33.540Z,0.80
2022-10-01T14:51:02.512Z,0.55
2022-10-01T14:53:35.313Z,0.90
2022-10-01T14:56:14.146Z,0.80
2022-10-01T14:58:47.601Z,0.80
2022-10-01T15:01:22.236Z,0.63
2022-10-01T15:03:50.268Z,0.65
2022-10-01T15:06:20.275Z,0.73
2022-10-01T15:08:51.898Z,0.77
2022-10-01T15:11:21.421Z,0.70
2022-10-01T15:13:51.243Z,0.90
2022-10-01T15:16:20.522Z,1.13
2022-10-01T15:18:50.327Z,0.73
2022-10-01T15:21:24.630Z,0.88
2022-10-01T15:23:51.757Z,1.02
2022-10-01T15:26:22.462Z,0.60
2022-10-01T15:28:49.681Z,0.68
2022-10-01T15:31:16.890Z,0.70
2022-10-01T15:33:43.715Z,0.82
2022-10-01T15:36:17.222Z,0.85
2022-10-01T15:38:46.012Z,0.90
2022-10-01T15:41:32.110Z,0.55
2022-10-01T15:44:02.833Z,0.70
2022-10-01T15:46:35.728Z,0.70
2022-10-01T15:49:24.779Z,0.60
2022-10-01T15:52:19.605Z,0.90
2022-10-01T15:57:22.025Z,1.08
2022-10-01T15:59:51.638Z,0.65
2022-10-01T16:02:22.997Z,0.80
2022-10-01T16:04:52.804Z,0.40
2022-10-01T16:07:28.421Z,0.43
2022-10-01T16:09:59.799Z,0.60
2022-10-01T16:12:29.424Z,0.90
2022-10-01T16:14:59.722Z,1.00
2022-10-01T16:17:35.220Z,1.73
2022-10-01T16:20:36.520Z,0.57
2022-10-01T16:23:39.950Z,1.00
2022-10-01T16:26:36.638Z,1.25
2022-10-01T16:29:07.037Z,0.80
2022-10-01T16:31:35.078Z,0.70
2022-10-01T16:34:01.510Z,0.90
2022-10-01T16:36:27.991Z,0.82
2022-10-01T16:38:54.464Z,1.00
2022-10-01T16:41:23.477Z,1.10
2022-10-01T16:43:51.502Z,0.63
2022-10-01T16:46:18.149Z,1.00
2022-10-01T16:48:48.505Z,1.10
2022-10-01T16:51:14.952Z,0.80
2022-10-01T16:53:43.002Z,0.80
2022-10-01T16:56:10.786Z,0.90
2022-10-01T16:58:40.946Z,0.82
2022-10-01T17:01:08.963Z,0.65
2022-10-01T17:03:36.371Z,1.48
2022-10-01T17:06:03.578Z,1.20
2022-10-01T17:08:29.986Z,1.40
2022-10-01T17:11:00.242Z,0.73
2022-10-01T17:13:28.416Z,1.00
2022-10-01T17:15:55.115Z,1.38
2022-10-01T17:18:22.496Z,1.42
2022-10-01T17:20:48.985Z,1.98
2022-10-01T17:23:18.606Z,1.70
2022-10-01T17:25:46.546Z,1.50
2022-10-01T17:28:15.951Z,1.23
2022-10-01T17:30:48.153Z,1.35
2022-10-01T17:33:18.832Z,1.77
2022-10-01T17:35:51.474Z,1.48
2022-10-01T17:38:19.237Z,1.38
2022-10-01T17:40:45.818Z,1.70
2022-10-01T17:43:14.275Z,1.30
2022-10-01T17:45:41.202Z,1.15
2022-10-01T17:48:08.816Z,2.22
2022-10-01T17:50:38.664Z,1.90
2022-10-01T17:53:05.115Z,1.23
2022-10-01T17:55:33.787Z,2.58
2022-10-01T17:58:00.168Z,1.80
2022-10-01T18:00:26.599Z,1.38
2022-10-01T18:02:54.552Z,1.20
2022-10-01T18:05:21.089Z,1.60
2022-10-01T18:07:47.548Z,1.90
2022-10-01T18:10:14.062Z,1.60
2022-10-01T18:12:40.809Z,1.67
2022-10-01T18:15:07.875Z,1.70
2022-10-01T18:17:36.586Z,1.92
2022-10-01T18:20:04.996Z,1.65
2022-10-01T18:22:31.438Z,1.80
2022-10-01T18:24:57.915Z,1.42
2022-10-01T18:27:24.569Z,1.33
2022-10-01T18:29:51.013Z,1.58
2022-10-01T18:32:26.781Z,1.63
2022-10-01T18:35:00.341Z,1.77
2022-10-01T18:37:46.560Z,1.83
2022-10-01T18:40:18.272Z,3.83
2022-10-01T18:43:04.493Z,1.70
2022-10-01T18:45:37.559Z,1.60
2022-10-01T18:48:32.946Z,1.77
2022-10-01T18:51:12.006Z,2.33
2022-10-01T18:54:07.235Z,2.00
2022-10-01T18:56:40.664Z,2.10
2022-10-01T18:59:48.781Z,2.58
2022-10-01T19:02:18.199Z,3.13
2022-10-01T19:04:56.318Z,2.25
2022-10-01T19:07:54.018Z,2.22
2022-10-01T19:10:45.616Z,2.60
2022-10-01T19:13:48.399Z,2.00
2022-10-01T19:16:56.246Z,2.40
2022-10-01T19:19:35.489Z,2.17
2022-10-01T19:22:31.760Z,2.17
2022-10-01T19:25:52.539Z,2.38
2022-10-01T19:28:31.644Z,2.00
2022-10-01T19:31:15.849Z,1.60
2022-10-01T19:33:49.971Z,1.85
2022-10-01T19:36:34.473Z,1.70
2022-10-01T19:39:06.427Z,1.73
2022-10-01T19:41:39.042Z,1.45
2022-10-01T19:44:17.061Z,1.73
2022-10-01T19:46:48.136Z,1.70
2022-10-01T19:49:25.549Z,1.80
2022-10-01T19:51:57.334Z,1.63
2022-10-01T19:54:31.306Z,2.20
2022-10-01T19:57:20.813Z,1.55
2022-10-01T19:59:47.464Z,2.45
2022-10-01T20:02:31.048Z,1.67
2022-10-01T20:05:07.210Z,1.70
2022-10-01T20:07:47.159Z,1.95
2022-10-01T20:10:27.204Z,1.77
2022-10-01T20:13:02.951Z,1.90
2022-10-01T20:15:48.842Z,1.85
2022-10-01T20:18:33.929Z,1.88
2022-10-01T20:21:29.815Z,2.28
2022-10-01T20:23:56.736Z,1.60
2022-10-01T20:26:52.372Z,1.58
2022-10-01T20:29:43.420Z,1.98
2022-10-01T20:32:40.552Z,1.88
2022-10-01T20:35:28.818Z,1.98
2022-10-01T20:38:06.938Z,2.17
2022-10-01T20:41:03.121Z,1.60
2022-10-01T20:43:49.050Z,2.42
2022-10-01T20:46:35.220Z,1.52
2022-10-01T20:49:06.772Z,1.60
2022-10-01T20:51:42.939Z,1.80
2022-10-01T20:54:12.357Z,1.85
2022-10-01T20:56:44.188Z,1.55
2022-10-01T20:59:15.830Z,1.77
2022-10-01T21:01:50.528Z,1.80
2022-10-01T21:04:22.876Z,2.25
2022-10-01T21:06:53.541Z,2.17
2022-10-01T21:09:35.391Z,1.90
2022-10-01T21:12:15.129Z,2.63
2022-10-01T21:14:51.411Z,2.03
2022-10-01T21:17:26.816Z,2.10
2022-10-01T21:20:15.497Z,2.75
2022-10-01T21:23:09.748Z,1.90
2022-10-01T21:26:18.503Z,1.90
2022-10-01T21:28:56.328Z,1.63
2022-10-01T21:31:58.193Z,2.00
2022-10-01T21:34:46.358Z,1.70
2022-10-01T21:37:33.700Z,1.75
2022-10-01T21:40:17.399Z,1.52
2022-10-01T21:42:55.443Z,2.00
2022-10-01T21:45:49.842Z,2.05
2022-10-01T21:48:38.953Z,2.30
2022-10-01T21:51:29.174Z,1.63
2022-10-01T21:54:11.854Z,2.03
2022-10-01T21:56:53.096Z,1.60
2022-10-01T22:00:08.011Z,1.85
2022-10-01T22:02:48.484Z,2.42
2022-10-01T22:05:33.129Z,1.80
2022-10-01T22:08:12.567Z,1.67
2022-10-01T22:10:44.196Z,2.63
2022-10-01T22:13:17.374Z,1.80
2022-10-01T22:15:44.898Z,1.63
2022-10-01T22:18:18.125Z,1.98
2022-10-01T22:20:46.776Z,1.90
2022-10-01T22:23:17.648Z,2.00
2022-10-01T22:25:52.995Z,2.50
2022-10-01T22:28:27.011Z,1.95
2022-10-01T22:33:29.546Z,2.30
2022-10-01T22:36:00.494Z,1.85
2022-10-01T22:38:45.505Z,1.63
2022-10-01T22:41:24.055Z,2.72
2022-10-01T22:43:50.685Z,1.58
2022-10-01T22:46:38.396Z,1.63
2022-10-01T22:49:31.527Z,2.30
2022-10-01T22:52:23.105Z,2.15
2022-10-01T22:55:19.125Z,2.10
2022-10-01T22:57:51.975Z,1.30
2022-10-01T23:00:18.542Z,3.03
2022-10-01T23:03:23.315Z,1.95
2022-10-01T23:06:00.408Z,2.45
2022-10-01T23:08:52.437Z,1.90
2022-10-01T23:11:26.978Z,1.80
2022-10-01T23:14:30.755Z,1.60
2022-10-01T23:16:57.170Z,1.67
2022-10-01T23:19:29.685Z,1.73
2022-10-01T23:22:38.280Z,1.75
2022-10-01T23:25:32.371Z,1.92
2022-10-01T23:28:14.826Z,1.98
2022-10-01T23:31:20.362Z,1.80
2022-10-01T23:34:07.051Z,2.10
2022-10-01T23:36:44.924Z,1.80
2022-10-01T23:39:50.001Z,2.25
2022-10-01T23:45:11.949Z,1.73
2022-10-01T23:47:47.132Z,1.48
2022-10-01T23:50:22.647Z,1.70
2022-10-01T23:53:02.978Z,2.97
2022-10-01T23:56:27.366Z,1.80
2022-10-01T23:59:16.137Z,1.50
